Time;durP1;ratioP1;P1;durP2;ratioP2;P2;SDS_P1;SDS_P2;PMS_P1;PMS_P2;Temp;Humidity;BMP_temperature;BMP_pressure;BME280_temperature;BME280_humidity;BME280_pressure;Samples;Min_cycle;Max_cycle;Signal;HPM_P1;HPM_P2
2022/09/23 00:02:07;;;;;;;5.93;5.53;;;;;;;;;;5046910;28;24489;-47
2022/09/23 00:04:33;;;;;;;5.45;5.15;;;;;;;;;;5050124;28;24775;-45
2022/09/23 00:06:58;;;;;;;5.60;5.30;;;;;;;;;;5066562;28;24770;-47
2022/09/23 00:09:23;;;;;;;6.40;6.00;;;;;;;;;;5057311;28;24423;-46
2022/09/23 00:11:48;;;;;;;6.23;5.83;;;;;;;;;;5062784;28;25052;-47
2022/09/23 00:14:13;;;;;;;6.10;5.70;;;;;;;;;;5054266;28;24492;-47
2022/09/23 00:16:38;;;;;;;6.60;6.20;;;;;;;;;;5052858;28;24489;-47
2022/09/23 00:19:04;;;;;;;5.60;5.20;;;;;;;;;;5052591;28;24415;-47
2022/09/23 00:21:29;;;;;;;5.60;5.20;;;;;;;;;;5048731;28;24832;-47
2022/09/23 00:23:54;;;;;;;6.03;5.63;;;;;;;;;;5048220;28;24434;-47
2022/09/23 00:26:20;;;;;;;5.90;5.50;;;;;;;;;;5054779;28;24967;-47
2022/09/23 00:28:46;;;;;;;6.00;5.60;;;;;;;;;;5058438;28;24501;-46
2022/09/23 00:31:13;;;;;;;6.38;5.97;;;;;;;;;;5063485;28;24965;-47
2022/09/23 00:33:39;;;;;;;5.93;5.53;;;;;;;;;;5063092;28;24411;-48
2022/09/23 00:36:05;;;;;;;6.40;6.00;;;;;;;;;;5065393;28;24457;-48
2022/09/23 00:38:31;;;;;;;6.20;5.80;;;;;;;;;;5062702;28;24559;-47
2022/09/23 00:40:57;;;;;;;6.30;5.90;;;;;;;;;;5060773;28;24980;-47
2022/09/23 00:43:40;;;;;;;6.53;6.13;;;;;;;;;;5065212;28;25059;-47
2022/09/23 00:46:07;;;;;;;6.60;6.10;;;;;;;;;;5058655;28;24499;-46
2022/09/23 00:48:33;;;;;;;6.30;5.90;;;;;;;;;;5050613;28;25024;-46
2022/09/23 00:50:58;;;;;;;5.97;5.57;;;;;;;;;;5047907;28;24512;-46
2022/09/23 00:53:25;;;;;;;6.10;5.70;;;;;;;;;;5065635;28;24430;-47
2022/09/23 00:55:55;;;;;;;6.00;5.60;;;;;;;;;;5049235;28;24419;-46
2022/09/23 00:58:22;;;;;;;6.90;6.40;;;;;;;;;;5055958;28;25033;-47
2022/09/23 01:00:48;;;;;;;6.15;5.75;;;;;;;;;;5056346;28;24423;-46
2022/09/23 01:03:13;;;;;;;6.50;6.10;;;;;;;;;;5059406;28;24480;-46
2022/09/23 01:05:38;;;;;;;6.20;5.80;;;;;;;;;;5057737;28;24520;-46
2022/09/23 01:08:04;;;;;;;5.90;5.50;;;;;;;;;;5061714;28;24427;-46
2022/09/23 01:10:33;;;;;;;6.20;5.80;;;;;;;;;;5050800;28;24427;-53
2022/09/23 01:12:58;;;;;;;5.90;5.50;;;;;;;;;;5048526;28;24806;-46
2022/09/23 01:15:27;;;;;;;6.40;5.90;;;;;;;;;;5057443;28;24786;-47
2022/09/23 01:18:10;;;;;;;5.90;5.50;;;;;;;;;;5060400;28;24471;-47
2022/09/23 01:20:55;;;;;;;6.50;6.00;;;;;;;;;;5059802;28;24517;-46
2022/09/23 01:23:39;;;;;;;6.90;6.40;;;;;;;;;;5064332;28;24469;-52
2022/09/23 01:26:19;;;;;;;6.80;6.40;;;;;;;;;;5063720;28;24836;-46
2022/09/23 01:29:04;;;;;;;6.40;6.00;;;;;;;;;;5063793;28;24472;-47
2022/09/23 01:31:35;;;;;;;6.80;6.30;;;;;;;;;;5058490;28;24470;-47
2022/09/23 01:34:01;;;;;;;6.95;6.35;;;;;;;;;;5066038;28;24920;-47
2022/09/23 01:36:34;;;;;;;6.60;6.20;;;;;;;;;;5061248;28;25036;-46
2022/09/23 01:39:05;;;;;;;6.50;6.10;;;;;;;;;;5053215;28;24419;-47
2022/09/23 01:41:33;;;;;;;6.35;5.95;;;;;;;;;;5060553;28;24423;-46
2022/09/23 01:44:10;;;;;;;6.10;5.70;;;;;;;;;;5052048;28;24865;-46
2022/09/23 01:46:47;;;;;;;5.90;5.50;;;;;;;;;;5051819;28;24971;-47
2022/09/23 01:49:16;;;;;;;6.40;5.90;;;;;;;;;;5062475;28;24933;-47
2022/09/23 01:51:44;;;;;;;6.80;6.30;;;;;;;;;;5051777;28;24589;-47
2022/09/23 01:54:23;;;;;;;6.57;6.18;;;;;;;;;;5045829;28;24415;-47
2022/09/23 01:56:51;;;;;;;5.93;5.53;;;;;;;;;;5062110;28;24430;-48
2022/09/23 01:59:20;;;;;;;6.20;5.80;;;;;;;;;;5063943;28;24891;-47
2022/09/23 02:01:57;;;;;;;5.90;5.55;;;;;;;;;;5067028;28;24801;-47
2022/09/23 02:04:29;;;;;;;6.90;6.50;;;;;;;;;;5066211;28;24461;-47
2022/09/23 02:06:59;;;;;;;6.75;6.25;;;;;;;;;;5061039;28;24450;-46
2022/09/23 02:09:28;;;;;;;6.60;6.20;;;;;;;;;;5048296;28;24473;-46
2022/09/23 02:11:59;;;;;;;6.60;6.10;;;;;;;;;;5063665;28;25073;-54
2022/09/23 02:14:28;;;;;;;6.10;5.70;;;;;;;;;;5061496;28;25253;-47
2022/09/23 02:16:55;;;;;;;5.95;5.55;;;;;;;;;;5065273;28;24521;-54
2022/09/23 02:19:25;;;;;;;6.27;5.87;;;;;;;;;;5046582;28;24477;-46
2022/09/23 02:21:54;;;;;;;6.22;5.80;;;;;;;;;;5060984;28;24426;-47
2022/09/23 02:24:23;;;;;;;6.20;5.80;;;;;;;;;;5063389;28;24465;-47
2022/09/23 02:26:50;;;;;;;6.60;6.20;;;;;;;;;;5068326;28;24429;-47
2022/09/23 02:29:19;;;;;;;6.55;6.13;;;;;;;;;;5062906;28;25019;-48
2022/09/23 02:32:00;;;;;;;6.10;5.70;;;;;;;;;;5067844;28;24986;-47
2022/09/23 02:34:44;;;;;;;7.00;6.40;;;;;;;;;;5058266;28;24457;-46
2022/09/23 02:37:09;;;;;;;6.35;5.95;;;;;;;;;;5065792;28;24466;-46
2022/09/23 02:39:54;;;;;;;6.10;5.70;;;;;;;;;;5067118;28;24473;-46
2022/09/23 02:42:27;;;;;;;6.25;5.85;;;;;;;;;;5063409;28;24427;-46
2022/09/23 02:44:52;;;;;;;6.20;5.80;;;;;;;;;;5065599;28;24520;-46
2022/09/23 02:47:18;;;;;;;6.55;6.13;;;;;;;;;;5046993;28;24427;-46
2022/09/23 02:49:43;;;;;;;6.72;6.30;;;;;;;;;;5057735;28;24517;-46
2022/09/23 02:52:10;;;;;;;6.05;5.65;;;;;;;;;;5059046;28;24969;-46
2022/09/23 02:54:36;;;;;;;6.43;6.03;;;;;;;;;;5057901;28;24433;-46
2022/09/23 02:57:02;;;;;;;6.30;5.90;;;;;;;;;;5057602;28;25039;-46
2022/09/23 02:59:28;;;;;;;6.22;5.82;;;;;;;;;;5057832;28;24429;-47
2022/09/23 03:02:12;;;;;;;6.10;5.70;;;;;;;;;;5059559;28;24786;-47
2022/09/23 03:04:50;;;;;;;6.50;6.10;;;;;;;;;;5063743;28;24437;-46
2022/09/23 03:07:31;;;;;;;6.13;5.72;;;;;;;;;;5062619;28;24790;-46
2022/09/23 03:10:15;;;;;;;6.30;5.90;;;;;;;;;;5064063;28;24415;-47
2022/09/23 03:12:46;;;;;;;6.32;5.93;;;;;;;;;;5059506;28;24431;-47
2022/09/23 03:15:14;;;;;;;7.38;6.88;;;;;;;;;;5054292;28;25023;-46
2022/09/23 03:17:54;;;;;;;7.22;6.72;;;;;;;;;;5060307;28;24460;-45
2022/09/23 03:20:34;;;;;;;6.47;5.97;;;;;;;;;;5064283;28;24427;-45
2022/09/23 03:23:02;;;;;;;6.28;5.88;;;;;;;;;;5067995;28;24496;-46
2022/09/23 03:25:30;;;;;;;7.00;6.60;;;;;;;;;;5065774;28;24819;-46
2022/09/23 03:27:56;;;;;;;6.80;6.40;;;;;;;;;;5064010;28;24422;-47
2022/09/23 03:30:22;;;;;;;6.70;6.30;;;;;;;;;;5064820;28;24422;-47
2022/09/23 03:32:50;;;;;;;6.50;6.10;;;;;;;;;;5063640;28;24470;-47
2022/09/23 03:35:15;;;;;;;6.65;6.15;;;;;;;;;;5051371;28;24424;-47
2022/09/23 03:37:51;;;;;;;6.63;6.22;;;;;;;;;;5051389;28;24422;-47
2022/09/23 03:40:22;;;;;;;6.60;6.20;;;;;;;;;;5066049;28;25034;-47
2022/09/23 03:42:50;;;;;;;7.30;6.80;;;;;;;;;;5073585;28;24418;-45
2022/09/23 03:45:19;;;;;;;6.88;6.43;;;;;;;;;;5070079;28;24410;-48
2022/09/23 03:47:44;;;;;;;7.20;6.70;;;;;;;;;;5071356;28;25136;-47
2022/09/23 03:50:12;;;;;;;6.70;6.20;;;;;;;;;;5068326;28;24418;-48
2022/09/23 03:52:38;;;;;;;7.20;6.70;;;;;;;;;;5074401;28;25018;-48
2022/09/23 03:55:03;;;;;;;8.00;7.40;;;;;;;;;;5074064;28;24398;-47
2022/09/23 03:57:29;;;;;;;7.70;7.20;;;;;;;;;;5080655;28;24413;-47
2022/09/23 03:59:54;;;;;;;7.78;7.18;;;;;;;;;;5075550;28;25188;-48
2022/09/23 04:02:19;;;;;;;7.70;7.20;;;;;;;;;;5075882;28;24414;-47
2022/09/23 04:04:44;;;;;;;7.03;6.63;;;;;;;;;;5078618;28;24946;-47
2022/09/23 04:07:09;;;;;;;6.87;6.37;;;;;;;;;;5075763;28;24435;-47
2022/09/23 04:09:35;;;;;;;8.10;7.50;;;;;;;;;;5064502;28;24509;-48
2022/09/23 04:12:00;;;;;;;7.30;6.80;;;;;;;;;;5046634;28;24824;-47
2022/09/23 04:14:25;;;;;;;8.40;7.80;;;;;;;;;;5047814;28;24530;-47
2022/09/23 04:16:50;;;;;;;8.18;7.57;;;;;;;;;;5066340;28;24418;-48
2022/09/23 04:19:15;;;;;;;7.57;7.07;;;;;;;;;;5065766;28;24436;-48
2022/09/23 04:21:41;;;;;;;8.30;7.70;;;;;;;;;;5061317;28;24530;-48
2022/09/23 04:24:07;;;;;;;8.70;8.10;;;;;;;;;;5061927;28;24431;-48
2022/09/23 04:26:33;;;;;;;7.93;7.38;;;;;;;;;;5048194;28;24462;-48
2022/09/23 04:28:58;;;;;;;7.28;6.78;;;;;;;;;;5055711;28;24987;-47
2022/09/23 04:31:23;;;;;;;9.00;8.30;;;;;;;;;;5064970;28;24418;-46
2022/09/23 04:33:49;;;;;;;7.93;7.32;;;;;;;;;;5060325;28;24442;-47
2022/09/23 04:36:14;;;;;;;8.23;7.63;;;;;;;;;;5055064;28;24817;-47
2022/09/23 04:38:42;;;;;;;8.50;7.90;;;;;;;;;;5054007;28;24509;-46
2022/09/23 04:41:08;;;;;;;9.80;9.10;;;;;;;;;;5054984;28;24458;-46
2022/09/23 04:43:33;;;;;;;9.57;8.87;;;;;;;;;;5043685;28;25319;-47
2022/09/23 04:45:59;;;;;;;8.90;8.30;;;;;;;;;;5043806;28;24419;-46
2022/09/23 04:48:24;;;;;;;8.50;7.90;;;;;;;;;;5062152;28;24957;-45
2022/09/23 04:50:49;;;;;;;9.20;8.50;;;;;;;;;;5056058;28;24487;-46
2022/09/23 04:53:15;;;;;;;9.00;8.40;;;;;;;;;;5060825;28;24419;-45
2022/09/23 04:55:41;;;;;;;9.00;8.30;;;;;;;;;;5051501;28;24815;-46
2022/09/23 04:58:08;;;;;;;9.33;8.63;;;;;;;;;;5047729;28;24429;-46
2022/09/23 05:00:33;;;;;;;9.60;8.90;;;;;;;;;;5048424;28;24522;-46
2022/09/23 05:02:58;;;;;;;10.00;9.30;;;;;;;;;;5051572;28;24518;-46
2022/09/23 05:05:24;;;;;;;10.65;9.85;;;;;;;;;;5058701;28;24446;-46
2022/09/23 05:07:50;;;;;;;10.63;9.80;;;;;;;;;;5058097;28;25035;-46
2022/09/23 05:10:15;;;;;;;9.85;9.20;;;;;;;;;;5058326;28;24442;-46
2022/09/23 05:12:40;;;;;;;10.35;9.48;;;;;;;;;;5055962;28;25019;-47
2022/09/23 05:15:06;;;;;;;10.00;9.30;;;;;;;;;;5056714;28;24426;-52
2022/09/23 05:17:31;;;;;;;9.70;9.00;;;;;;;;;;5056516;28;24499;-47
2022/09/23 05:19:58;;;;;;;9.80;9.10;;;;;;;;;;5062010;28;24426;-47
2022/09/23 05:22:28;;;;;;;9.05;8.45;;;;;;;;;;5056495;28;24430;-46
2022/09/23 05:24:53;;;;;;;10.48;9.68;;;;;;;;;;5058084;28;24442;-46
2022/09/23 05:27:18;;;;;;;9.90;9.20;;;;;;;;;;5062714;28;24431;-47
2022/09/23 05:29:43;;;;;;;9.63;8.98;;;;;;;;;;5066017;28;24404;-47
2022/09/23 05:32:08;;;;;;;11.00;10.20;;;;;;;;;;5065777;28;24386;-48
2022/09/23 05:34:34;;;;;;;9.95;9.25;;;;;;;;;;5050203;28;25081;-47
2022/09/23 05:36:59;;;;;;;9.40;8.60;;;;;;;;;;5049743;28;24694;-46
2022/09/23 05:39:24;;;;;;;9.63;8.98;;;;;;;;;;5062208;28;24484;-47
2022/09/23 05:41:49;;;;;;;9.52;8.93;;;;;;;;;;5069379;28;24426;-46
2022/09/23 05:44:14;;;;;;;9.50;8.80;;;;;;;;;;5060797;28;24411;-46
2022/09/23 05:46:39;;;;;;;9.40;8.70;;;;;;;;;;5048987;28;24553;-47
2022/09/23 05:49:05;;;;;;;9.63;8.93;;;;;;;;;;5051898;28;24967;-47
2022/09/23 05:51:31;;;;;;;9.50;8.80;;;;;;;;;;5054727;28;24980;-46
2022/09/23 05:54:01;;;;;;;9.50;8.80;;;;;;;;;;5066681;28;24424;-46
2022/09/23 05:56:27;;;;;;;10.55;9.55;;;;;;;;;;5061887;28;24429;-46
2022/09/23 05:58:53;;;;;;;8.70;8.10;;;;;;;;;;5058130;28;24437;-47
2022/09/23 06:01:20;;;;;;;8.70;8.10;;;;;;;;;;5060837;28;24455;-47
2022/09/23 06:03:46;;;;;;;7.97;7.47;;;;;;;;;;5053770;28;25039;-47
2022/09/23 06:06:13;;;;;;;9.43;8.73;;;;;;;;;;5055345;28;25044;-47
2022/09/23 06:08:38;;;;;;;8.13;7.53;;;;;;;;;;5059819;28;24819;-47
2022/09/23 06:11:06;;;;;;;8.73;8.13;;;;;;;;;;5068773;28;25000;-46
2022/09/23 06:13:31;;;;;;;8.30;7.70;;;;;;;;;;5065835;28;24844;-46
2022/09/23 06:15:57;;;;;;;8.07;7.47;;;;;;;;;;5065376;28;24431;-46
2022/09/23 06:18:22;;;;;;;8.50;7.87;;;;;;;;;;5064519;28;25057;-47
2022/09/23 06:20:47;;;;;;;8.00;7.40;;;;;;;;;;5055302;28;24969;-47
2022/09/23 06:23:12;;;;;;;9.27;8.57;;;;;;;;;;5063132;28;24425;-46
2022/09/23 06:25:37;;;;;;;7.93;7.32;;;;;;;;;;5057811;28;24415;-48
2022/09/23 06:28:03;;;;;;;8.55;7.95;;;;;;;;;;5050248;28;24443;-47
2022/09/23 06:30:28;;;;;;;9.00;8.20;;;;;;;;;;5066324;28;24430;-47
2022/09/23 06:32:55;;;;;;;9.10;8.40;;;;;;;;;;5066126;28;24423;-47
2022/09/23 06:35:22;;;;;;;8.90;8.30;;;;;;;;;;5045478;28;24420;-47
2022/09/23 06:37:48;;;;;;;8.55;7.93;;;;;;;;;;5060453;28;25085;-48
2022/09/23 06:40:13;;;;;;;9.75;9.05;;;;;;;;;;5065608;28;24427;-49
2022/09/23 06:42:38;;;;;;;8.60;8.00;;;;;;;;;;5053241;28;24418;-47
2022/09/23 06:45:04;;;;;;;8.18;7.57;;;;;;;;;;5048546;28;24695;-46
2022/09/23 06:47:29;;;;;;;8.60;8.00;;;;;;;;;;5054687;28;24477;-46
2022/09/23 06:49:54;;;;;;;8.75;8.15;;;;;;;;;;5055070;28;24400;-48
2022/09/23 06:52:19;;;;;;;8.95;8.25;;;;;;;;;;5064686;28;25302;-47
2022/09/23 06:54:45;;;;;;;9.07;8.48;;;;;;;;;;5054907;28;24430;-48
2022/09/23 06:57:10;;;;;;;7.83;7.23;;;;;;;;;;5061642;28;24434;-47
2022/09/23 06:59:35;;;;;;;8.63;8.03;;;;;;;;;;5068489;28;24401;-46
2022/09/23 07:02:00;;;;;;;8.40;7.80;;;;;;;;;;5071231;28;24516;-47
2022/09/23 07:04:25;;;;;;;8.50;7.80;;;;;;;;;;5068238;28;24418;-47
2022/09/23 07:06:52;;;;;;;9.10;8.40;;;;;;;;;;5068126;28;24418;-47
2022/09/23 07:09:17;;;;;;;8.82;8.13;;;;;;;;;;5068249;28;24809;-47
2022/09/23 07:11:42;;;;;;;8.52;7.93;;;;;;;;;;5062666;28;24972;-47
2022/09/23 07:14:07;;;;;;;7.40;6.90;;;;;;;;;;5056949;28;24442;-48
2022/09/23 07:16:32;;;;;;;8.40;7.80;;;;;;;;;;5068113;28;24395;-47
2022/09/23 07:18:58;;;;;;;8.50;7.90;;;;;;;;;;5067881;28;24746;-47
2022/09/23 07:21:23;;;;;;;7.80;7.20;;;;;;;;;;5067936;28;24450;-46
2022/09/23 07:23:49;;;;;;;7.40;6.80;;;;;;;;;;5065595;28;24518;-48
2022/09/23 07:26:14;;;;;;;9.05;8.25;;;;;;;;;;5067597;28;24761;-47
2022/09/23 07:28:40;;;;;;;7.88;7.20;;;;;;;;;;5067912;28;24490;-47
2022/09/23 07:31:06;;;;;;;6.80;6.20;;;;;;;;;;5067724;28;24399;-48
2022/09/23 07:33:33;;;;;;;6.35;5.85;;;;;;;;;;5063422;28;24431;-48
2022/09/23 07:35:58;;;;;;;6.50;6.05;;;;;;;;;;5067318;28;24430;-47
2022/09/23 07:38:28;;;;;;;6.82;6.32;;;;;;;;;;5064825;28;24411;-47
2022/09/23 07:40:53;;;;;;;6.60;6.20;;;;;;;;;;5067221;28;24409;-47
2022/09/23 07:43:18;;;;;;;6.75;6.25;;;;;;;;;;5067209;28;24437;-46
2022/09/23 07:45:44;;;;;;;7.33;6.73;;;;;;;;;;5067409;28;24398;-46
2022/09/23 07:48:09;;;;;;;7.10;6.60;;;;;;;;;;5065612;28;24418;-47
2022/09/23 07:50:34;;;;;;;6.77;6.37;;;;;;;;;;5067717;28;24386;-47
2022/09/23 07:53:01;;;;;;;7.50;6.90;;;;;;;;;;5066850;28;24382;-47
2022/09/23 07:55:26;;;;;;;6.55;6.15;;;;;;;;;;5067349;28;24477;-47
2022/09/23 07:57:52;;;;;;;6.25;5.85;;;;;;;;;;5063669;28;24582;-48
2022/09/23 08:00:17;;;;;;;6.90;6.40;;;;;;;;;;5067300;28;24391;-48
2022/09/23 08:02:42;;;;;;;6.50;6.00;;;;;;;;;;5066744;28;24390;-48
2022/09/23 08:05:08;;;;;;;7.00;6.40;;;;;;;;;;5067429;28;24410;-47
2022/09/23 08:07:33;;;;;;;6.20;5.77;;;;;;;;;;5067124;28;24510;-48
2022/09/23 08:09:58;;;;;;;6.70;6.20;;;;;;;;;;5064961;28;24473;-48
2022/09/23 08:12:24;;;;;;;6.77;6.27;;;;;;;;;;5066988;28;24486;-47
2022/09/23 08:14:49;;;;;;;6.80;6.30;;;;;;;;;;5066854;28;24391;-48
2022/09/23 08:17:14;;;;;;;6.60;6.20;;;;;;;;;;5067177;28;24426;-47
2022/09/23 08:19:39;;;;;;;7.05;6.45;;;;;;;;;;5064817;28;24422;-48
2022/09/23 08:22:04;;;;;;;5.93;5.53;;;;;;;;;;5066779;28;24978;-45
2022/09/23 08:24:31;;;;;;;6.30;5.80;;;;;;;;;;5066941;28;24485;-45
2022/09/23 08:26:56;;;;;;;6.57;5.97;;;;;;;;;;5066879;28;24776;-46
2022/09/23 08:29:23;;;;;;;6.40;5.90;;;;;;;;;;5064866;28;25056;-45
2022/09/23 08:31:48;;;;;;;5.80;5.40;;;;;;;;;;5064174;28;24476;-46
2022/09/23 08:34:14;;;;;;;5.53;5.13;;;;;;;;;;5066887;28;24389;-45
2022/09/23 08:36:39;;;;;;;5.10;4.70;;;;;;;;;;5066459;28;24991;-46
2022/09/23 08:39:05;;;;;;;5.90;5.40;;;;;;;;;;5066486;28;24399;-47
2022/09/23 08:41:37;;;;;;;6.00;5.50;;;;;;;;;;5064791;28;24453;-46
2022/09/23 08:44:15;;;;;;;6.60;6.10;;;;;;;;;;5066803;28;24784;-47
2022/09/23 08:46:46;;;;;;;6.00;5.60;;;;;;;;;;5066245;28;24446;-47
2022/09/23 08:49:16;;;;;;;6.70;6.20;;;;;;;;;;5066504;28;24498;-47
2022/09/23 08:51:45;;;;;;;6.20;5.70;;;;;;;;;;5054671;28;24430;-47
2022/09/23 08:54:11;;;;;;;6.00;5.60;;;;;;;;;;5046637;28;24392;-46
2022/09/23 08:56:37;;;;;;;5.85;5.45;;;;;;;;;;5046516;28;24801;-46
2022/09/23 08:59:08;;;;;;;5.45;5.05;;;;;;;;;;5046290;28;24394;-47
2022/09/23 09:01:38;;;;;;;5.10;4.70;;;;;;;;;;5051112;28;24858;-47
2022/09/23 09:04:36;;;;;;;6.20;5.70;;;;;;;;;;5064524;28;24449;-47
2022/09/23 09:07:09;;;;;;;5.53;5.13;;;;;;;;;;5021322;28;24446;-47
2022/09/23 09:09:47;;;;;;;6.40;5.80;;;;;;;;;;5069274;28;24417;-47
2022/09/23 09:12:14;;;;;;;4.63;4.32;;;;;;;;;;5068023;28;24526;-47
2022/09/23 09:14:44;;;;;;;6.28;5.70;;;;;;;;;;5069744;28;24427;-47
2022/09/23 09:17:12;;;;;;;5.18;4.78;;;;;;;;;;5070269;28;25117;-47
2022/09/23 09:19:46;;;;;;;5.60;5.20;;;;;;;;;;5070372;28;24383;-47
2022/09/23 09:22:17;;;;;;;4.40;4.10;;;;;;;;;;5066884;28;26108;-48
2022/09/23 09:24:44;;;;;;;4.18;3.88;;;;;;;;;;5070039;28;25074;-48
2022/09/23 09:27:10;;;;;;;5.22;4.82;;;;;;;;;;5070139;28;24733;-48
2022/09/23 09:29:38;;;;;;;5.20;4.90;;;;;;;;;;5070278;28;24394;-48
2022/09/23 09:32:17;;;;;;;4.70;4.30;;;;;;;;;;5069636;28;24406;-47
2022/09/23 09:34:46;;;;;;;5.68;5.28;;;;;;;;;;5049801;28;24446;-48
2022/09/23 09:37:19;;;;;;;4.70;4.40;;;;;;;;;;5050010;28;24384;-46
2022/09/23 09:39:44;;;;;;;4.43;4.13;;;;;;;;;;5050042;28;24981;-48
2022/09/23 09:42:15;;;;;;;4.03;3.73;;;;;;;;;;5049573;28;24395;-46
2022/09/23 09:44:46;;;;;;;4.30;3.90;;;;;;;;;;5064827;28;24533;-46
2022/09/23 09:47:30;;;;;;;3.50;3.30;;;;;;;;;;5069198;28;24426;-53
2022/09/23 09:50:04;;;;;;;3.92;3.63;;;;;;;;;;5069926;28;24402;-46
2022/09/23 09:52:30;;;;;;;3.80;3.50;;;;;;;;;;5069734;28;24391;-46
2022/09/23 09:55:16;;;;;;;3.83;3.63;;;;;;;;;;5067283;28;24406;-48
2022/09/23 09:57:51;;;;;;;3.80;3.50;;;;;;;;;;5068999;28;24403;-48
2022/09/23 10:00:18;;;;;;;4.50;4.10;;;;;;;;;;5066940;28;24904;-48
2022/09/23 10:02:44;;;;;;;3.97;3.67;;;;;;;;;;5068431;28;24932;-46
2022/09/23 10:05:22;;;;;;;3.90;3.60;;;;;;;;;;5058245;28;24438;-47
2022/09/23 10:07:47;;;;;;;3.80;3.50;;;;;;;;;;5063001;28;24423;-47
2022/09/23 10:10:23;;;;;;;4.57;4.17;;;;;;;;;;5069178;28;24378;-48
2022/09/23 10:12:49;;;;;;;3.90;3.60;;;;;;;;;;5068744;28;24379;-46
2022/09/23 10:15:30;;;;;;;4.40;4.10;;;;;;;;;;5067738;28;24828;-47
2022/09/23 10:17:55;;;;;;;3.10;2.90;;;;;;;;;;5069044;28;24547;-48
2022/09/23 10:20:20;;;;;;;3.28;3.00;;;;;;;;;;5068266;28;24493;-47
2022/09/23 10:22:46;;;;;;;3.10;2.90;;;;;;;;;;5068728;28;24398;-47
2022/09/23 10:25:25;;;;;;;2.90;2.70;;;;;;;;;;5068119;28;24452;-47
2022/09/23 10:27:50;;;;;;;3.40;3.10;;;;;;;;;;5048727;28;24426;-48
2022/09/23 10:30:21;;;;;;;3.95;3.65;;;;;;;;;;5049014;28;24387;-48
2022/09/23 10:32:47;;;;;;;2.88;2.67;;;;;;;;;;5048500;28;24387;-48
2022/09/23 10:35:12;;;;;;;2.90;2.70;;;;;;;;;;5049014;28;24969;-48
2022/09/23 10:37:43;;;;;;;2.57;2.37;;;;;;;;;;5062432;28;24525;-48
2022/09/23 10:48:34;;;;;;;2.10;2.00;;;;;;;;;;5068366;28;24426;-47
2022/09/23 10:51:00;;;;;;;1.70;1.60;;;;;;;;;;5068516;28;24855;-47
2022/09/23 10:53:48;;;;;;;2.00;1.90;;;;;;;;;;5066926;28;24537;-47
2022/09/23 10:56:13;;;;;;;2.30;2.10;;;;;;;;;;5068260;28;24426;-47
2022/09/23 10:58:49;;;;;;;2.20;2.10;;;;;;;;;;5068790;28;24488;-46
2022/09/23 11:01:23;;;;;;;2.13;1.92;;;;;;;;;;5048431;28;24407;-47
2022/09/23 11:03:55;;;;;;;1.80;1.70;;;;;;;;;;5049294;28;24757;-47
2022/09/23 11:06:40;;;;;;;2.00;1.80;;;;;;;;;;5067945;28;24497;-47
2022/09/23 11:09:24;;;;;;;1.60;1.50;;;;;;;;;;5068448;28;24391;-47
2022/09/23 11:12:05;;;;;;;2.10;2.00;;;;;;;;;;5068139;28;24418;-47
2022/09/23 11:14:30;;;;;;;1.80;1.70;;;;;;;;;;5066370;28;24422;-47
2022/09/23 11:17:03;;;;;;;1.50;1.40;;;;;;;;;;5067954;28;24398;-47
2022/09/23 11:19:31;;;;;;;2.58;1.40;;;;;;;;;;5068181;28;24406;-48
2022/09/23 11:22:15;;;;;;;1.80;1.70;;;;;;;;;;5067874;28;24449;-47
2022/09/23 11:24:49;;;;;;;2.30;2.20;;;;;;;;;;5067116;28;24405;-46
2022/09/23 11:27:26;;;;;;;2.30;2.20;;;;;;;;;;5066374;28;24446;-47
2022/09/23 11:30:06;;;;;;;2.70;2.50;;;;;;;;;;5067800;28;24796;-48
2022/09/23 11:32:50;;;;;;;1.70;1.60;;;;;;;;;;5067910;28;24395;-48
2022/09/23 11:35:15;;;;;;;1.90;1.80;;;;;;;;;;5066662;28;24427;-47
2022/09/23 11:37:45;;;;;;;1.70;1.60;;;;;;;;;;5066228;28;24418;-47
2022/09/23 11:40:22;;;;;;;1.70;1.53;;;;;;;;;;5067744;28;24510;-47
2022/09/23 11:43:14;;;;;;;2.10;2.00;;;;;;;;;;5067158;28;24395;-48
2022/09/23 11:45:43;;;;;;;2.10;1.80;;;;;;;;;;5064439;28;24765;-47
2022/09/23 11:48:14;;;;;;;1.73;1.63;;;;;;;;;;5066304;28;24407;-48
2022/09/23 11:50:43;;;;;;;1.80;1.70;;;;;;;;;;5067311;28;24548;-47
2022/09/23 11:53:17;;;;;;;2.00;1.90;;;;;;;;;;5067242;28;24743;-47
2022/09/23 11:55:48;;;;;;;1.90;1.80;;;;;;;;;;5067432;28;24394;-48
2022/09/23 11:58:25;;;;;;;1.60;1.50;;;;;;;;;;5064793;28;24422;-48
2022/09/23 12:00:59;;;;;;;1.90;1.80;;;;;;;;;;5066836;28;24781;-47
2022/09/23 12:03:30;;;;;;;2.38;2.17;;;;;;;;;;5066859;28;24411;-47
2022/09/23 12:05:55;;;;;;;2.00;1.80;;;;;;;;;;5067019;28;24399;-47
2022/09/23 12:08:25;;;;;;;2.90;2.13;;;;;;;;;;5065060;28;24684;-47
2022/09/23 12:11:00;;;;;;;2.80;1.70;;;;;;;;;;5066760;28;24530;-47
2022/09/23 12:13:44;;;;;;;2.25;2.10;;;;;;;;;;5066754;28;24939;-47
2022/09/23 12:16:29;;;;;;;2.00;1.90;;;;;;;;;;5066592;28;24410;-48
2022/09/23 12:18:55;;;;;;;2.70;1.90;;;;;;;;;;5065274;28;24422;-47
2022/09/23 12:21:38;;;;;;;2.60;1.90;;;;;;;;;;5066415;28;24399;-48
2022/09/23 12:24:13;;;;;;;2.30;2.20;;;;;;;;;;5066601;28;24444;-47
2022/09/23 12:26:38;;;;;;;1.70;1.60;;;;;;;;;;5066854;28;24456;-47
2022/09/23 12:29:04;;;;;;;1.90;1.80;;;;;;;;;;5065117;28;25237;-48
2022/09/23 12:31:30;;;;;;;1.93;1.83;;;;;;;;;;5064121;28;24984;-48
2022/09/23 12:33:57;;;;;;;1.70;1.60;;;;;;;;;;5053441;28;24468;-48
2022/09/23 12:36:29;;;;;;;2.20;2.00;;;;;;;;;;5054030;28;24498;-48
2022/09/23 12:39:17;;;;;;;3.30;2.08;;;;;;;;;;5066638;28;24413;-47
2022/09/23 12:41:48;;;;;;;2.03;1.92;;;;;;;;;;5038388;28;25180;-47
2022/09/23 12:44:14;;;;;;;1.70;1.60;;;;;;;;;;5055727;28;24498;-48
2022/09/23 12:46:41;;;;;;;1.60;1.50;;;;;;;;;;5066592;28;24770;-48
2022/09/23 12:49:35;;;;;;;2.00;1.80;;;;;;;;;;5066211;28;24383;-48
2022/09/23 12:52:11;;;;;;;1.50;1.40;;;;;;;;;;5066182;28;25068;-48
2022/09/23 12:54:39;;;;;;;1.83;1.73;;;;;;;;;;5057134;28;24495;-48
2022/09/23 12:57:24;;;;;;;1.70;1.60;;;;;;;;;;5056219;28;24515;-48
2022/09/23 12:59:50;;;;;;;2.17;2.08;;;;;;;;;;5057281;28;24431;-48
2022/09/23 13:02:24;;;;;;;1.95;1.85;;;;;;;;;;5058615;28;24520;-49
2022/09/23 13:07:58;;;;;;;1.75;1.65;;;;;;;;;;5065241;28;24877;-49
2022/09/23 13:10:28;;;;;;;2.10;1.90;;;;;;;;;;5066116;28;24859;-46
2022/09/23 13:12:54;;;;;;;1.90;1.80;;;;;;;;;;5049937;28;24404;-47
2022/09/23 13:15:22;;;;;;;2.50;2.30;;;;;;;;;;5045984;28;24738;-47
2022/09/23 13:17:47;;;;;;;2.30;2.20;;;;;;;;;;5053982;28;25219;-48
2022/09/23 13:20:19;;;;;;;2.77;2.57;;;;;;;;;;5066069;28;24481;-47
2022/09/23 13:22:47;;;;;;;2.72;2.40;;;;;;;;;;5066134;28;25043;-48
2022/09/23 13:25:18;;;;;;;3.10;2.90;;;;;;;;;;5044990;28;24434;-48
2022/09/23 13:27:44;;;;;;;3.00;2.80;;;;;;;;;;5046065;28;24442;-48
2022/09/23 13:30:12;;;;;;;3.00;2.80;;;;;;;;;;5045648;28;24419;-48
2022/09/23 13:32:40;;;;;;;3.10;2.90;;;;;;;;;;5046110;28;24951;-47
2022/09/23 13:35:11;;;;;;;3.10;2.90;;;;;;;;;;5046483;28;24430;-48
2022/09/23 13:37:36;;;;;;;3.00;2.80;;;;;;;;;;5046056;28;24449;-48
2022/09/23 13:40:18;;;;;;;2.70;2.20;;;;;;;;;;5046021;28;24396;-48
2022/09/23 13:42:46;;;;;;;2.50;2.40;;;;;;;;;;5045645;28;24399;-47
2022/09/23 13:45:13;;;;;;;2.90;2.70;;;;;;;;;;5045244;28;24407;-48
2022/09/23 13:47:41;;;;;;;2.30;2.20;;;;;;;;;;5045904;28;25035;-48
2022/09/23 13:50:12;;;;;;;2.75;2.55;;;;;;;;;;5045929;28;24418;-48
2022/09/23 13:52:37;;;;;;;3.30;3.10;;;;;;;;;;5046306;28;24790;-48
2022/09/23 13:55:02;;;;;;;2.90;2.70;;;;;;;;;;5049846;28;24439;-49
2022/09/23 13:57:32;;;;;;;3.42;3.22;;;;;;;;;;5069188;28;24693;-49
2022/09/23 14:00:17;;;;;;;3.60;3.35;;;;;;;;;;5061882;28;24525;-48
2022/09/23 14:02:43;;;;;;;3.47;3.28;;;;;;;;;;5053797;28;24411;-48
2022/09/23 14:05:20;;;;;;;3.45;3.25;;;;;;;;;;5062808;28;24417;-48
2022/09/23 14:07:45;;;;;;;3.88;3.58;;;;;;;;;;5069094;28;24544;-48
2022/09/23 14:10:15;;;;;;;3.97;3.67;;;;;;;;;;5068735;28;24390;-48
2022/09/23 14:12:40;;;;;;;3.80;3.50;;;;;;;;;;5069000;28;24422;-48
2022/09/23 14:15:11;;;;;;;3.53;3.23;;;;;;;;;;5070561;28;25017;-48
2022/09/23 14:17:37;;;;;;;3.85;3.55;;;;;;;;;;5078226;28;24410;-48
2022/09/23 14:20:02;;;;;;;3.90;3.60;;;;;;;;;;5066228;28;24426;-48
2022/09/23 14:22:28;;;;;;;3.80;3.50;;;;;;;;;;5067998;28;24418;-48
2022/09/23 14:24:54;;;;;;;3.22;3.03;;;;;;;;;;5066833;28;24469;-48
2022/09/23 14:27:27;;;;;;;3.47;3.15;;;;;;;;;;5068634;28;24852;-48
2022/09/23 14:29:52;;;;;;;3.78;3.47;;;;;;;;;;5068086;28;24406;-48
2022/09/23 14:32:19;;;;;;;3.20;3.00;;;;;;;;;;5068349;28;24434;-48
2022/09/23 14:34:45;;;;;;;3.00;2.70;;;;;;;;;;5067514;28;25146;-48
2022/09/23 14:40:19;;;;;;;2.70;2.60;;;;;;;;;;5048840;28;24532;-48
2022/09/23 14:42:46;;;;;;;2.90;2.70;;;;;;;;;;5050366;28;24415;-48
2022/09/23 14:45:14;;;;;;;2.50;2.40;;;;;;;;;;5067961;28;24943;-48
2022/09/23 14:47:42;;;;;;;2.20;2.10;;;;;;;;;;5066682;28;24963;-48
2022/09/23 14:52:57;;;;;;;2.40;2.20;;;;;;;;;;5066386;28;24433;-48
2022/09/23 14:55:26;;;;;;;2.20;2.10;;;;;;;;;;5066503;28;24777;-47
2022/09/23 14:58:00;;;;;;;3.20;3.00;;;;;;;;;;5068015;28;24407;-48
2022/09/23 15:00:25;;;;;;;3.10;2.90;;;;;;;;;;5067592;28;24434;-48
2022/09/23 15:02:56;;;;;;;3.97;3.33;;;;;;;;;;5067959;28;24398;-48
2022/09/23 15:05:28;;;;;;;3.60;3.40;;;;;;;;;;5066474;28;24461;-49
2022/09/23 15:07:54;;;;;;;4.10;3.80;;;;;;;;;;5067481;28;24534;-47
2022/09/23 15:10:22;;;;;;;3.93;3.67;;;;;;;;;;5066521;28;24569;-47
2022/09/23 15:12:49;;;;;;;4.10;3.90;;;;;;;;;;5067434;28;25039;-47